Terminal Aerodrome Forecast
Issued by NWS Miami, FL

Home | Current Version | Previous Version | Text Only | Print | Product List | Glossary On
Versions: 1 2 3 4 5 6 7 8 9 10 11 12 13 14 15 16 17 18 19 20 21 22 23 24 25 26 27 28
000
FTUS42 KMFL 050308 AAB
TAFFLL
TAF AMD
KFLL 050308Z 0503/0524 24015G22KT P6SM -SHRA VCTS FEW025CB BKN080
      BKN120
     FM050400 26012KT P6SM SCT020 SCT080 BKN100
     FM051100 31011KT P6SM SCT020 SCT060 SCT250
     FM051400 33012G22KT P6SM FEW050 SCT250=

USA.gov is the U.S. government's official web portal to all federal, state and local government web resources and services.